Time;durP1;ratioP1;P1;durP2;ratioP2;P2;SDS_P1;SDS_P2;PMS_P1;PMS_P2;Temp;Humidity;BMP_temperature;BMP_pressure;BME280_temperature;BME280_humidity;BME280_pressure;Samples;Min_cycle;Max_cycle;Signal;HPM_P1;HPM_P2
2022/07/15 00:02:11;;;;;;;7.90;1.85;;;13.80;99.90;;;;;;5060701;28;20140;-69
2022/07/15 00:04:38;;;;;;;7.63;2.08;;;13.90;99.90;;;;;;5077992;28;20048;-69
2022/07/15 00:07:04;;;;;;;7.93;2.15;;;13.90;99.90;;;;;;5077540;28;20040;-69
2022/07/15 00:12:15;;;;;;;5.78;1.50;;;13.90;99.90;;;;;;5059821;28;20128;-69
2022/07/15 00:14:40;;;;;;;6.22;1.77;;;14.00;99.90;;;;;;5060208;28;20059;-70
2022/07/15 00:17:07;;;;;;;4.68;1.40;;;14.00;99.90;;;;;;5060204;28;20475;-69
2022/07/15 00:19:34;;;;;;;6.70;1.95;;;14.00;99.90;;;;;;5060179;28;20147;-69
2022/07/15 00:22:00;;;;;;;8.13;2.33;;;13.90;99.90;;;;;;5060476;28;20045;-70
2022/07/15 00:24:25;;;;;;;6.70;1.38;;;13.80;99.90;;;;;;5059854;28;20050;-69
2022/07/15 00:26:51;;;;;;;9.68;1.50;;;13.80;99.90;;;;;;5059780;28;20466;-68
2022/07/15 00:29:17;;;;;;;5.40;1.88;;;13.80;99.90;;;;;;5060024;28;20097;-70
2022/07/15 00:31:42;;;;;;;9.38;1.60;;;13.80;99.90;;;;;;5059891;28;20064;-69
2022/07/15 00:34:08;;;;;;;9.98;1.33;;;13.80;99.90;;;;;;5077297;28;20044;-69
2022/07/15 00:36:33;;;;;;;4.68;1.15;;;13.80;99.90;;;;;;5060124;28;20372;-69
2022/07/15 00:38:59;;;;;;;8.75;1.55;;;13.80;99.90;;;;;;5059147;28;20045;-69
2022/07/15 00:41:25;;;;;;;6.07;1.35;;;13.80;99.90;;;;;;5077307;28;20051;-69
2022/07/15 00:43:50;;;;;;;3.60;1.35;;;13.80;99.90;;;;;;5077542;28;20102;-70
2022/07/15 00:46:18;;;;;;;6.95;2.08;;;13.90;99.90;;;;;;5059231;28;20057;-70
2022/07/15 00:48:44;;;;;;;8.55;1.50;;;13.90;99.90;;;;;;5043048;28;20044;-69
2022/07/15 00:51:09;;;;;;;3.72;1.92;;;14.00;99.90;;;;;;5077244;28;20368;-69
2022/07/15 00:53:37;;;;;;;5.38;1.50;;;14.00;99.90;;;;;;5052451;28;20057;-70
2022/07/15 00:56:04;;;;;;;7.78;1.70;;;14.00;99.90;;;;;;5041923;28;20056;-69
2022/07/15 00:58:32;;;;;;;3.35;1.23;;;14.00;99.90;;;;;;5039724;28;20040;-69
2022/07/15 01:00:59;;;;;;;5.32;1.63;;;13.90;99.90;;;;;;5056876;28;20060;-69
2022/07/15 01:03:27;;;;;;;10.18;1.63;;;14.00;99.90;;;;;;5056916;28;20057;-69
2022/07/15 01:05:56;;;;;;;2.13;1.10;;;14.10;99.90;;;;;;5057353;28;20036;-69
2022/07/15 01:08:21;;;;;;;5.07;1.65;;;14.10;99.90;;;;;;5022128;28;20056;-69
2022/07/15 01:10:49;;;;;;;5.30;1.90;;;14.10;99.90;;;;;;5056967;28;20442;-70
2022/07/15 01:13:15;;;;;;;3.47;1.40;;;14.10;99.90;;;;;;5058991;28;20052;-70
2022/07/15 01:15:41;;;;;;;4.13;1.65;;;14.00;99.90;;;;;;5076611;28;20048;-69
2022/07/15 01:18:07;;;;;;;5.80;1.67;;;14.00;99.90;;;;;;5058840;28;20063;-69
2022/07/15 01:20:33;;;;;;;5.32;1.85;;;13.90;99.90;;;;;;5059594;28;20049;-70
2022/07/15 01:22:59;;;;;;;6.43;1.52;;;13.90;99.90;;;;;;5059191;28;20048;-69
2022/07/15 01:25:26;;;;;;;6.20;2.65;;;13.80;99.90;;;;;;5076490;28;20040;-69
2022/07/15 01:27:52;;;;;;;7.28;1.70;;;13.70;99.90;;;;;;5075596;28;20054;-70
2022/07/15 01:30:17;;;;;;;5.68;1.85;;;13.60;99.90;;;;;;5076350;28;20123;-69
2022/07/15 01:32:43;;;;;;;7.10;1.38;;;13.50;99.90;;;;;;5076305;28;20048;-69
2022/07/15 01:35:09;;;;;;;4.25;1.33;;;13.40;99.90;;;;;;5076561;28;20126;-69
2022/07/15 01:37:34;;;;;;;3.08;1.40;;;13.30;99.90;;;;;;5059026;28;20051;-70
2022/07/15 01:40:00;;;;;;;3.38;1.20;;;13.20;99.90;;;;;;5076221;28;20044;-70
2022/07/15 01:42:26;;;;;;;4.40;1.42;;;13.20;99.90;;;;;;5057656;28;20417;-68
2022/07/15 01:44:51;;;;;;;6.78;1.42;;;13.20;99.90;;;;;;5055961;28;20397;-70
2022/07/15 01:47:17;;;;;;;5.72;1.55;;;13.20;99.90;;;;;;5055963;28;20053;-70
2022/07/15 01:49:42;;;;;;;7.68;1.48;;;13.20;99.90;;;;;;5057010;28;20056;-70
2022/07/15 01:52:09;;;;;;;6.63;1.50;;;13.30;99.90;;;;;;5056089;28;20410;-69
2022/07/15 01:54:35;;;;;;;6.40;1.60;;;13.40;99.90;;;;;;5070767;28;20480;-70
2022/07/15 01:57:02;;;;;;;8.20;1.90;;;13.50;99.90;;;;;;5058038;28;20048;-69
2022/07/15 01:59:27;;;;;;;4.22;2.05;;;13.50;99.90;;;;;;5075917;28;20040;-69
2022/07/15 02:01:55;;;;;;;7.15;1.85;;;13.60;99.90;;;;;;5075347;28;20352;-69
2022/07/15 02:04:21;;;;;;;5.82;1.67;;;13.60;99.90;;;;;;5086855;28;20058;-69
2022/07/15 02:06:47;;;;;;;3.70;1.33;;;13.60;99.90;;;;;;5096074;28;20058;-70
2022/07/15 02:09:13;;;;;;;4.72;1.35;;;13.60;99.90;;;;;;5096110;28;20443;-70
2022/07/15 02:11:39;;;;;;;4.80;1.50;;;13.60;99.90;;;;;;5096208;28;20044;-70
2022/07/15 02:14:05;;;;;;;8.50;1.77;;;13.60;99.90;;;;;;5077930;28;20109;-69
2022/07/15 02:16:32;;;;;;;5.30;1.40;;;13.70;99.90;;;;;;5095707;28;20048;-69
2022/07/15 02:18:58;;;;;;;8.85;1.70;;;13.70;99.90;;;;;;5073677;28;20047;-69
2022/07/15 02:21:26;;;;;;;3.85;1.80;;;13.70;99.90;;;;;;5074828;28;20040;-69
2022/07/15 02:23:55;;;;;;;4.18;1.48;;;13.60;99.90;;;;;;5073871;28;20040;-69
2022/07/15 02:26:21;;;;;;;4.95;1.40;;;13.50;99.90;;;;;;5075276;28;20089;-70
2022/07/15 02:28:47;;;;;;;5.75;1.48;;;13.50;99.90;;;;;;5057856;28;20052;-70
2022/07/15 02:31:12;;;;;;;5.75;1.55;;;13.40;99.90;;;;;;5058072;28;20067;-69
2022/07/15 02:33:39;;;;;;;3.88;1.40;;;13.40;99.90;;;;;;5057632;28;20047;-69
2022/07/15 02:36:05;;;;;;;2.88;1.25;;;13.20;99.90;;;;;;5075139;28;20050;-69
2022/07/15 02:38:31;;;;;;;8.18;1.92;;;13.10;99.90;;;;;;5057663;28;20048;-69
2022/07/15 02:40:56;;;;;;;7.10;1.30;;;13.00;99.90;;;;;;5075180;28;20044;-70
2022/07/15 02:43:22;;;;;;;6.50;1.73;;;13.00;99.90;;;;;;5058129;28;20059;-69
2022/07/15 02:45:48;;;;;;;2.65;1.00;;;12.80;99.90;;;;;;5074948;28;20055;-70
2022/07/15 02:48:15;;;;;;;5.10;1.42;;;12.70;99.90;;;;;;5060546;28;20053;-69
2022/07/15 02:50:41;;;;;;;9.05;1.52;;;12.70;99.90;;;;;;5077275;28;20060;-69
2022/07/15 02:53:07;;;;;;;2.63;1.13;;;12.60;99.90;;;;;;5077133;28;20074;-69
2022/07/15 02:55:33;;;;;;;4.18;1.38;;;12.50;99.90;;;;;;5077013;28;20056;-70
2022/07/15 02:57:58;;;;;;;6.75;1.80;;;12.40;99.90;;;;;;5077719;28;20151;-70
2022/07/15 03:00:24;;;;;;;6.28;2.25;;;12.40;99.90;;;;;;5077224;28;20043;-70
2022/07/15 03:02:50;;;;;;;3.15;1.55;;;12.30;99.90;;;;;;5074073;28;20052;-69
2022/07/15 03:05:15;;;;;;;5.72;1.70;;;12.30;99.90;;;;;;5074851;28;20047;-69
2022/07/15 03:07:42;;;;;;;6.88;1.52;;;12.20;99.90;;;;;;5071767;28;20072;-70
2022/07/15 03:10:09;;;;;;;7.07;2.00;;;12.10;99.90;;;;;;5074463;28;20040;-69
2022/07/15 03:12:35;;;;;;;4.05;1.42;;;12.10;99.90;;;;;;5074640;28;20044;-69
2022/07/15 03:15:01;;;;;;;5.85;1.70;;;12.10;99.90;;;;;;5074740;28;20102;-69
2022/07/15 03:17:27;;;;;;;7.15;1.48;;;12.00;99.90;;;;;;5056789;28;20049;-69
2022/07/15 03:19:55;;;;;;;9.55;2.20;;;12.00;99.90;;;;;;5057555;28;20051;-69
2022/07/15 03:22:21;;;;;;;5.85;1.48;;;11.90;99.90;;;;;;5076524;28;20052;-69
2022/07/15 03:24:48;;;;;;;6.90;1.70;;;11.90;99.90;;;;;;5072331;28;20160;-69
2022/07/15 03:27:15;;;;;;;17.58;2.20;;;11.90;99.90;;;;;;5057303;28;20075;-69
2022/07/15 03:29:41;;;;;;;8.70;1.48;;;11.90;99.90;;;;;;5056975;28;20040;-69
2022/07/15 03:32:07;;;;;;;7.57;1.70;;;11.90;99.90;;;;;;5075121;28;20047;-69
2022/07/15 03:34:33;;;;;;;3.97;1.60;;;11.90;99.90;;;;;;5074540;28;20373;-69
2022/07/15 03:36:59;;;;;;;4.07;1.23;;;12.00;99.90;;;;;;5056455;28;20036;-69
2022/07/15 03:39:25;;;;;;;4.93;1.98;;;12.00;99.90;;;;;;5074532;28;20120;-69
2022/07/15 03:41:51;;;;;;;4.05;1.42;;;12.20;99.90;;;;;;5074440;28;20158;-68
2022/07/15 03:44:17;;;;;;;4.55;1.60;;;12.10;99.90;;;;;;5074466;28;20103;-69
2022/07/15 03:46:46;;;;;;;5.63;1.25;;;12.10;99.90;;;;;;5056452;28;20128;-69
2022/07/15 03:49:13;;;;;;;5.03;1.60;;;12.10;99.90;;;;;;5074108;28;20044;-69
2022/07/15 03:51:38;;;;;;;9.45;1.73;;;12.10;99.90;;;;;;5074495;28;20130;-69
2022/07/15 03:54:04;;;;;;;6.95;1.63;;;12.10;99.90;;;;;;5056215;28;20056;-69
2022/07/15 03:56:31;;;;;;;5.93;1.73;;;12.10;99.90;;;;;;5057251;28;20053;-69
2022/07/15 03:58:56;;;;;;;3.92;1.27;;;12.20;99.90;;;;;;5074318;28;20052;-69
2022/07/15 04:01:25;;;;;;;5.28;1.33;;;12.30;99.90;;;;;;5074467;28;20041;-68
2022/07/15 04:03:52;;;;;;;4.35;1.52;;;12.40;99.90;;;;;;5082473;28;20071;-69
2022/07/15 04:06:19;;;;;;;3.70;1.45;;;12.50;99.90;;;;;;5073327;28;20044;-69
2022/07/15 04:08:45;;;;;;;5.47;1.83;;;12.50;99.90;;;;;;5056076;28;20123;-69
2022/07/15 04:11:11;;;;;;;8.50;1.42;;;12.60;99.90;;;;;;5056692;28;20060;-68
2022/07/15 04:13:38;;;;;;;5.95;1.48;;;12.70;99.90;;;;;;5074387;28;20085;-69
2022/07/15 04:16:05;;;;;;;5.30;1.45;;;12.80;99.90;;;;;;5059719;28;20044;-68
2022/07/15 04:18:30;;;;;;;7.50;1.40;;;12.80;99.90;;;;;;5059739;28;20087;-69
2022/07/15 04:20:56;;;;;;;8.55;1.73;;;12.90;99.90;;;;;;5059835;28;20087;-68
2022/07/15 04:23:22;;;;;;;3.05;1.23;;;12.90;99.90;;;;;;5077921;28;20044;-68
2022/07/15 04:25:51;;;;;;;4.88;1.30;;;13.00;99.90;;;;;;5060366;28;20041;-69
2022/07/15 04:28:19;;;;;;;3.10;1.40;;;13.10;99.90;;;;;;5072162;28;20063;-69
2022/07/15 04:30:45;;;;;;;6.22;1.55;;;13.10;99.90;;;;;;5068307;28;20040;-69
2022/07/15 04:33:10;;;;;;;4.75;1.70;;;13.20;99.90;;;;;;5059745;28;20071;-69
2022/07/15 04:35:38;;;;;;;5.85;1.83;;;13.40;99.90;;;;;;5059813;28;20045;-69
2022/07/15 04:38:04;;;;;;;2.88;0.93;;;13.40;99.90;;;;;;5076625;28;20327;-70
2022/07/15 04:40:31;;;;;;;5.47;1.30;;;13.40;99.90;;;;;;5059738;28;20071;-70
2022/07/15 04:42:58;;;;;;;4.93;1.33;;;13.50;99.90;;;;;;5077827;28;20376;-69
2022/07/15 04:45:24;;;;;;;5.28;1.10;;;13.60;99.90;;;;;;5079993;28;20052;-69
2022/07/15 04:47:50;;;;;;;5.85;1.52;;;13.90;99.90;;;;;;5097275;28;20511;-69
2022/07/15 04:52:59;;;;;;;9.65;1.15;;;14.00;99.90;;;;;;5097701;28;20048;-69
2022/07/15 04:55:26;;;;;;;2.15;0.90;;;14.10;99.90;;;;;;5097652;28;20354;-70
2022/07/15 04:57:52;;;;;;;5.88;1.10;;;14.30;99.90;;;;;;5075412;28;20052;-69
2022/07/15 05:00:18;;;;;;;4.03;1.25;;;14.50;99.90;;;;;;5073343;28;20044;-69
2022/07/15 05:02:43;;;;;;;2.40;1.42;;;14.60;99.90;;;;;;5075787;28;20372;-70
2022/07/15 05:05:10;;;;;;;8.93;1.75;;;14.70;99.90;;;;;;5076907;28;20040;-69
2022/07/15 05:07:36;;;;;;;2.55;0.85;;;14.90;99.90;;;;;;5059785;28;20361;-68
2022/07/15 05:10:03;;;;;;;2.35;1.02;;;15.00;99.90;;;;;;5076330;28;20094;-68
2022/07/15 05:12:29;;;;;;;4.50;1.50;;;15.00;99.90;;;;;;5059254;28;20475;-68
2022/07/15 05:14:55;;;;;;;3.95;1.42;;;15.10;99.90;;;;;;5076343;28;20040;-68
2022/07/15 05:17:20;;;;;;;4.57;1.10;;;15.10;99.90;;;;;;5092331;28;20055;-69
2022/07/15 05:19:46;;;;;;;3.83;1.35;;;15.00;99.90;;;;;;5059475;28;20368;-68
2022/07/15 05:22:11;;;;;;;2.20;1.00;;;15.00;99.90;;;;;;5076516;28;20040;-69
2022/07/15 05:24:37;;;;;;;1.27;0.60;;;15.00;99.90;;;;;;5076500;28;20075;-68
2022/07/15 05:27:02;;;;;;;5.75;1.20;;;15.00;99.90;;;;;;5059233;28;20063;-68
2022/07/15 05:29:28;;;;;;;2.42;1.15;;;15.00;99.90;;;;;;5059279;28;20048;-69
2022/07/15 05:31:54;;;;;;;2.88;0.77;;;15.00;99.90;;;;;;5058755;28;20062;-69
2022/07/15 05:34:19;;;;;;;2.17;1.00;;;14.90;99.90;;;;;;5085316;28;20057;-68
2022/07/15 05:36:45;;;;;;;3.53;1.10;;;14.90;99.90;;;;;;5078679;28;20048;-68
2022/07/15 05:39:11;;;;;;;5.05;1.10;;;15.00;99.90;;;;;;5078702;28;20044;-68
2022/07/15 05:41:36;;;;;;;2.47;0.90;;;15.10;99.90;;;;;;5095086;28;20044;-68
2022/07/15 05:44:02;;;;;;;3.25;0.90;;;15.00;99.90;;;;;;5096435;28;20193;-69
2022/07/15 05:46:28;;;;;;;3.05;0.60;;;15.20;99.90;;;;;;5081059;28;20047;-70
2022/07/15 05:48:53;;;;;;;4.88;1.15;;;15.20;99.90;;;;;;5078485;28;20044;-70
2022/07/15 05:51:19;;;;;;;2.22;0.68;;;15.30;99.90;;;;;;5096234;28;20032;-70
2022/07/15 05:53:44;;;;;;;5.78;1.20;;;15.40;99.90;;;;;;5078620;28;20059;-69
2022/07/15 05:56:10;;;;;;;4.95;1.10;;;15.50;99.90;;;;;;5091962;28;20049;-70
2022/07/15 05:58:36;;;;;;;2.40;0.70;;;15.70;99.90;;;;;;5075996;28;20514;-68
2022/07/15 06:01:02;;;;;;;5.13;1.33;;;16.00;99.90;;;;;;5075550;28;20037;-69
2022/07/15 06:03:27;;;;;;;9.65;1.15;;;16.30;99.90;;;;;;5095922;28;20422;-68
2022/07/15 06:05:53;;;;;;;3.70;0.90;;;16.60;99.90;;;;;;5109987;28;20044;-67
2022/07/15 06:08:19;;;;;;;7.78;0.85;;;17.30;99.90;;;;;;5086359;28;20406;-69
2022/07/15 06:10:45;;;;;;;2.70;0.80;;;17.60;99.90;;;;;;5081247;28;20448;-69
2022/07/15 06:13:10;;;;;;;1.90;0.80;;;18.70;99.90;;;;;;5089494;28;20081;-68
2022/07/15 06:15:36;;;;;;;2.15;0.60;;;19.30;99.90;;;;;;5116186;28;20044;-69
2022/07/15 06:18:02;;;;;;;3.22;0.70;;;19.20;99.90;;;;;;5097727;28;20058;-69
2022/07/15 06:20:28;;;;;;;2.35;0.50;;;18.90;99.90;;;;;;5086798;28;20085;-68
2022/07/15 06:22:54;;;;;;;2.80;0.90;;;18.70;99.90;;;;;;5075187;28;20082;-69
2022/07/15 06:25:20;;;;;;;1.58;0.65;;;18.50;99.90;;;;;;5040702;28;20040;-70
2022/07/15 06:27:46;;;;;;;1.27;0.50;;;18.50;99.90;;;;;;5075172;28;20372;-68
2022/07/15 06:30:13;;;;;;;1.40;0.47;;;18.40;99.90;;;;;;5057245;28;20045;-68
2022/07/15 06:32:38;;;;;;;2.78;0.73;;;18.20;99.90;;;;;;5057263;28;20052;-69
2022/07/15 06:35:05;;;;;;;0.60;0.50;;;18.30;99.90;;;;;;5057769;28;20476;-70
2022/07/15 06:37:31;;;;;;;4.55;1.17;;;18.10;99.90;;;;;;5056774;28;20056;-70
2022/07/15 06:39:56;;;;;;;1.77;0.70;;;18.30;99.90;;;;;;5074816;28;20098;-69
2022/07/15 06:42:22;;;;;;;2.17;0.85;;;18.10;99.90;;;;;;5063512;28;20052;-70
2022/07/15 06:44:48;;;;;;;3.50;0.70;;;17.90;99.90;;;;;;5095236;28;20044;-69
2022/07/15 06:47:14;;;;;;;1.52;0.68;;;17.70;99.90;;;;;;5077118;28;20476;-69
2022/07/15 06:49:40;;;;;;;2.63;0.70;;;17.50;99.90;;;;;;5077354;28;20468;-69
2022/07/15 06:52:05;;;;;;;4.40;0.77;;;17.50;99.90;;;;;;5077267;28;20054;-69
2022/07/15 06:54:31;;;;;;;1.70;0.55;;;17.30;99.90;;;;;;5094455;28;20059;-69
2022/07/15 06:56:58;;;;;;;6.13;0.70;;;17.50;99.90;;;;;;5079686;28;20071;-70
2022/07/15 06:59:23;;;;;;;5.53;0.60;;;17.80;99.90;;;;;;5057080;28;20390;-71
2022/07/15 07:01:49;;;;;;;2.47;0.90;;;17.90;99.90;;;;;;5057202;28;20040;-70
2022/07/15 07:04:15;;;;;;;3.72;0.75;;;18.30;99.90;;;;;;5074159;28;20051;-70
2022/07/15 07:06:40;;;;;;;7.32;1.30;;;19.00;99.90;;;;;;5057475;28;20128;-71
2022/07/15 07:09:06;;;;;;;2.40;0.60;;;20.20;99.90;;;;;;5074795;28;20135;-70
2022/07/15 07:11:32;;;;;;;1.92;0.80;;;20.80;99.90;;;;;;5076835;28;20087;-71
2022/07/15 07:13:59;;;;;;;2.40;0.55;;;20.90;99.90;;;;;;5070699;28;20465;-70
2022/07/15 07:16:25;;;;;;;5.68;0.70;;;20.40;99.90;;;;;;5056935;28;20062;-69
2022/07/15 07:18:51;;;;;;;1.90;0.73;;;20.30;99.90;;;;;;5056305;28;20449;-70
2022/07/15 07:21:18;;;;;;;3.58;0.73;;;20.00;99.90;;;;;;5069080;28;20051;-70
2022/07/15 07:23:44;;;;;;;2.33;1.05;;;20.10;99.90;;;;;;5083289;28;20047;-70
2022/07/15 07:26:11;;;;;;;2.38;0.82;;;20.90;99.90;;;;;;5086543;28;20447;-71
2022/07/15 07:28:39;;;;;;;1.95;0.60;;;22.40;99.90;;;;;;5086099;28;20069;-71
2022/07/15 07:31:06;;;;;;;1.50;0.45;;;23.60;99.00;;;;;;5094001;28;20444;-72
2022/07/15 07:33:33;;;;;;;3.25;0.63;;;24.60;98.60;;;;;;5079123;28;20051;-71
2022/07/15 07:35:59;;;;;;;6.55;0.57;;;25.40;96.80;;;;;;5108640;28;20040;-70
2022/07/15 07:38:24;;;;;;;1.42;0.40;;;26.20;96.20;;;;;;5069655;28;20391;-71
2022/07/15 07:40:50;;;;;;;2.88;0.57;;;26.30;95.70;;;;;;5104929;28;20052;-69
2022/07/15 07:43:17;;;;;;;3.25;0.43;;;25.70;95.20;;;;;;5082405;28;20062;-69
2022/07/15 07:45:43;;;;;;;1.67;0.50;;;24.80;94.20;;;;;;5082713;28;20115;-69
2022/07/15 07:48:08;;;;;;;3.45;1.20;;;23.70;94.50;;;;;;5083846;28;20180;-68
2022/07/15 07:50:34;;;;;;;1.52;0.50;;;23.00;95.60;;;;;;5079778;28;20123;-68
2022/07/15 07:53:00;;;;;;;4.40;0.80;;;22.50;96.10;;;;;;5058779;28;20045;-72
2022/07/15 07:55:26;;;;;;;2.83;0.50;;;22.10;96.50;;;;;;5038343;28;20057;-70
2022/07/15 07:57:54;;;;;;;1.75;0.60;;;21.90;97.00;;;;;;5058203;28;20088;-68
2022/07/15 08:00:21;;;;;;;1.67;0.43;;;21.60;97.10;;;;;;5057986;28;20384;-67
2022/07/15 08:02:47;;;;;;;1.15;0.57;;;21.10;97.30;;;;;;5056787;28;20056;-69
2022/07/15 08:05:14;;;;;;;1.30;0.40;;;21.00;97.70;;;;;;5040341;28;20053;-71
2022/07/15 08:07:41;;;;;;;1.73;0.88;;;20.80;97.80;;;;;;5057812;28;20040;-69
2022/07/15 08:10:10;;;;;;;3.92;0.50;;;20.80;98.30;;;;;;5056552;28;20041;-69
2022/07/15 08:12:37;;;;;;;1.30;0.47;;;21.00;98.00;;;;;;5039826;28;20044;-68
2022/07/15 08:15:05;;;;;;;0.60;0.38;;;21.00;97.90;;;;;;5073140;28;20060;-68
2022/07/15 08:17:31;;;;;;;1.60;0.40;;;20.80;97.80;;;;;;5057821;28;20056;-69
2022/07/15 08:19:56;;;;;;;3.05;0.90;;;20.60;97.70;;;;;;5039420;28;20450;-70
2022/07/15 08:22:22;;;;;;;1.42;0.40;;;20.50;97.90;;;;;;5057242;28;20127;-69
2022/07/15 08:24:51;;;;;;;0.80;0.60;;;20.20;98.10;;;;;;5072613;28;20037;-68
2022/07/15 08:27:18;;;;;;;1.33;0.43;;;20.00;98.80;;;;;;5057401;28;20045;-69
2022/07/15 08:29:46;;;;;;;2.75;0.55;;;19.80;99.00;;;;;;5039904;28;20088;-69
2022/07/15 08:32:11;;;;;;;2.17;0.60;;;19.80;99.60;;;;;;5062269;28;20040;-71
2022/07/15 08:34:37;;;;;;;2.17;0.70;;;19.80;99.60;;;;;;5064099;28;20051;-71
2022/07/15 08:37:03;;;;;;;2.88;0.45;;;19.80;99.90;;;;;;5075364;28;20369;-70
2022/07/15 08:39:28;;;;;;;1.55;0.60;;;20.00;99.90;;;;;;5064975;28;20059;-70
2022/07/15 08:41:54;;;;;;;0.93;0.50;;;20.30;99.30;;;;;;5086672;28;20036;-70
2022/07/15 08:44:20;;;;;;;3.08;0.40;;;20.50;99.20;;;;;;5076756;28;20483;-70
2022/07/15 08:46:47;;;;;;;4.68;0.50;;;20.70;99.00;;;;;;5077328;28;20075;-70
2022/07/15 08:49:16;;;;;;;1.38;0.55;;;20.70;99.10;;;;;;5066151;28;20059;-69
2022/07/15 08:51:46;;;;;;;0.82;0.35;;;20.70;98.60;;;;;;5087779;28;20535;-70
2022/07/15 08:54:16;;;;;;;0.70;0.30;;;20.60;97.90;;;;;;5063116;28;20361;-70
2022/07/15 08:56:45;;;;;;;1.83;0.30;;;20.60;97.90;;;;;;5093077;28;20047;-70
2022/07/15 08:59:12;;;;;;;3.92;0.70;;;20.70;97.90;;;;;;5096961;28;20044;-69
2022/07/15 09:01:43;;;;;;;1.90;0.45;;;20.70;97.80;;;;;;5078674;28;20085;-71
2022/07/15 09:04:08;;;;;;;1.92;0.47;;;20.70;97.80;;;;;;5096682;28;20036;-69
2022/07/15 09:06:36;;;;;;;0.50;0.40;;;20.70;97.10;;;;;;5078764;28;20055;-69
2022/07/15 09:09:17;;;;;;;3.53;0.40;;;20.90;97.90;;;;;;5075197;28;20052;-69
2022/07/15 09:11:43;;;;;;;3.30;0.50;;;21.00;97.60;;;;;;5076323;28;20059;-69
2022/07/15 09:14:13;;;;;;;0.65;0.32;;;21.30;97.90;;;;;;5076708;28;20040;-69
2022/07/15 09:16:39;;;;;;;2.13;0.47;;;21.70;97.10;;;;;;5058765;28;20048;-69
2022/07/15 09:19:04;;;;;;;2.15;0.50;;;22.10;97.80;;;;;;5058102;28;20060;-69
2022/07/15 09:21:30;;;;;;;1.20;0.50;;;22.90;96.50;;;;;;5056776;28;20084;-70
2022/07/15 09:24:14;;;;;;;5.00;0.60;;;22.90;96.50;;;;;;5065308;28;20071;-69
2022/07/15 09:26:39;;;;;;;2.50;0.30;;;22.70;96.40;;;;;;5073014;28;20055;-70
2022/07/15 09:35:04;;;;;;;4.38;0.70;;;23.50;95.30;;;;;;5060049;28;20053;-70
2022/07/15 09:37:30;;;;;;;0.88;0.43;;;23.20;95.30;;;;;;5095456;28;20051;-70
2022/07/15 09:39:57;;;;;;;1.33;0.63;;;22.80;94.70;;;;;;5081039;28;20033;-70
2022/07/15 09:42:23;;;;;;;2.55;0.60;;;22.10;94.50;;;;;;5074113;28;20052;-71
2022/07/15 09:44:50;;;;;;;2.13;0.47;;;21.70;95.50;;;;;;5086318;28;20059;-70
2022/07/15 09:47:22;;;;;;;1.65;0.40;;;21.50;96.20;;;;;;5061875;28;20067;-70
2022/07/15 09:49:48;;;;;;;0.85;0.40;;;21.30;96.30;;;;;;5096143;28;20047;-69
2022/07/15 09:52:14;;;;;;;0.65;0.43;;;21.00;96.50;;;;;;5077985;28;20036;-70
2022/07/15 09:54:43;;;;;;;2.17;0.38;;;21.00;96.10;;;;;;5060151;28;20059;-70
2022/07/15 09:57:14;;;;;;;0.57;0.40;;;21.10;96.80;;;;;;5042421;28;20075;-71
2022/07/15 09:59:40;;;;;;;3.63;0.40;;;21.10;96.50;;;;;;5055217;28;20132;-70
2022/07/15 10:02:05;;;;;;;2.33;0.40;;;21.20;96.30;;;;;;5055387;28;20123;-71
2022/07/15 10:04:31;;;;;;;0.90;0.35;;;21.40;96.50;;;;;;5037588;28;20123;-70
2022/07/15 10:07:02;;;;;;;2.55;0.40;;;21.50;96.50;;;;;;5038570;28;20041;-69
2022/07/15 10:09:30;;;;;;;4.75;0.95;;;21.60;96.20;;;;;;5037989;28;20136;-70
2022/07/15 10:12:18;;;;;;;0.55;0.32;;;21.70;96.20;;;;;;5074275;28;20045;-68
2022/07/15 10:15:06;;;;;;;0.77;0.30;;;21.90;95.50;;;;;;5073920;28;20422;-69
2022/07/15 10:17:48;;;;;;;1.88;0.32;;;21.80;96.40;;;;;;5064200;28;20408;-70
2022/07/15 10:20:26;;;;;;;1.25;0.30;;;22.00;96.40;;;;;;5082858;28;20040;-71
2022/07/15 10:23:06;;;;;;;1.02;0.47;;;22.30;96.60;;;;;;5073902;28;20469;-69
2022/07/15 10:26:05;;;;;;;0.95;0.30;;;22.60;95.90;;;;;;5048658;28;20467;-69
2022/07/15 10:28:50;;;;;;;0.68;0.35;;;23.10;96.00;;;;;;5037792;28;20393;-70
2022/07/15 10:31:25;;;;;;;1.48;0.43;;;23.40;95.20;;;;;;5056505;28;20052;-70
2022/07/15 10:34:03;;;;;;;3.65;0.57;;;23.70;95.00;;;;;;5057489;28;20446;-70
2022/07/15 10:36:41;;;;;;;2.13;0.65;;;23.70;94.10;;;;;;5056821;28;20040;-71
2022/07/15 10:39:08;;;;;;;3.85;0.82;;;23.80;95.30;;;;;;5056961;28;20044;-70
2022/07/15 10:41:58;;;;;;;1.60;0.50;;;24.10;95.20;;;;;;5074810;28;20045;-69
2022/07/15 10:44:33;;;;;;;1.50;0.50;;;24.30;94.40;;;;;;5056702;28;20048;-70
2022/07/15 10:47:14;;;;;;;2.05;0.47;;;24.20;94.80;;;;;;5073457;28;20461;-69
2022/07/15 10:49:44;;;;;;;2.15;0.45;;;24.20;94.30;;;;;;5040753;28;20416;-70
2022/07/15 10:52:22;;;;;;;1.77;0.60;;;24.40;94.80;;;;;;5074809;28;20361;-69
2022/07/15 10:55:04;;;;;;;1.00;0.20;;;24.30;93.80;;;;;;5089455;28;20066;-71
2022/07/15 10:57:45;;;;;;;1.42;0.32;;;24.20;93.70;;;;;;5077107;28;20448;-71
2022/07/15 11:00:37;;;;;;;1.48;0.40;;;23.80;93.60;;;;;;5077407;28;20364;-72
2022/07/15 11:03:14;;;;;;;1.75;0.40;;;23.20;94.20;;;;;;5060763;28;20044;-70
2022/07/15 11:05:46;;;;;;;1.45;0.57;;;22.70;95.10;;;;;;5074690;28;20044;-70
2022/07/15 11:08:30;;;;;;;1.40;0.50;;;22.40;94.70;;;;;;5057118;28;20120;-70
2022/07/15 11:10:56;;;;;;;2.45;0.47;;;21.60;95.30;;;;;;5056970;28;20056;-71
2022/07/15 11:13:32;;;;;;;0.95;0.43;;;21.50;96.10;;;;;;5056572;28;20109;-71
2022/07/15 11:15:59;;;;;;;0.93;0.40;;;21.40;95.90;;;;;;5057722;28;20525;-71
2022/07/15 11:18:25;;;;;;;1.92;0.40;;;21.40;96.20;;;;;;5073978;28;20033;-71
2022/07/15 11:20:50;;;;;;;1.15;0.40;;;21.40;96.10;;;;;;5056827;28;20105;-71
2022/07/15 11:23:18;;;;;;;2.00;0.52;;;21.60;96.70;;;;;;5074941;28;20496;-71
2022/07/15 11:25:44;;;;;;;0.70;0.35;;;21.80;96.70;;;;;;5061039;28;20044;-71
2022/07/15 11:28:14;;;;;;;2.83;0.40;;;21.80;95.70;;;;;;5060869;28;20059;-71
2022/07/15 11:30:53;;;;;;;1.58;0.40;;;21.80;95.50;;;;;;5067880;28;20040;-70
2022/07/15 11:33:21;;;;;;;0.77;0.40;;;21.70;95.70;;;;;;5060992;28;20071;-70
2022/07/15 11:35:50;;;;;;;1.42;0.50;;;21.80;95.90;;;;;;5061058;28;20079;-70
2022/07/15 11:38:17;;;;;;;0.52;0.30;;;21.90;96.20;;;;;;5093357;28;20368;-69
2022/07/15 11:46:15;;;;;;;0.60;0.38;;;22.20;95.90;;;;;;5082456;28;20056;-70
2022/07/15 11:48:41;;;;;;;0.95;0.40;;;22.30;95.80;;;;;;5081022;28;20044;-72
2022/07/15 11:51:08;;;;;;;2.50;0.50;;;22.10;94.80;;;;;;5098232;28;20051;-69
2022/07/15 11:53:43;;;;;;;1.65;0.38;;;22.10;95.60;;;;;;5080583;28;20056;-69
2022/07/15 11:56:11;;;;;;;0.35;0.30;;;22.10;95.50;;;;;;5098575;28;20129;-69
2022/07/15 11:58:39;;;;;;;1.70;0.93;;;22.10;95.80;;;;;;5080307;28;20040;-69
2022/07/15 12:01:16;;;;;;;0.57;0.32;;;22.10;95.50;;;;;;5097893;28;20368;-69
2022/07/15 12:03:44;;;;;;;1.48;0.50;;;22.30;95.70;;;;;;5097899;28;20048;-69
2022/07/15 12:06:23;;;;;;;1.98;0.50;;;22.30;94.60;;;;;;5080230;28;20505;-69
2022/07/15 12:08:54;;;;;;;1.27;0.40;;;22.00;95.20;;;;;;5080343;28;20079;-70
2022/07/15 12:11:26;;;;;;;1.33;0.45;;;22.20;95.70;;;;;;5098069;28;20405;-70
2022/07/15 12:13:56;;;;;;;0.90;0.43;;;22.40;94.60;;;;;;5096241;28;20075;-71
2022/07/15 12:16:26;;;;;;;2.00;0.50;;;22.40;94.60;;;;;;5060144;28;20101;-71
2022/07/15 12:19:04;;;;;;;2.58;0.60;;;22.30;95.00;;;;;;5060010;28;20060;-70
2022/07/15 12:21:31;;;;;;;1.48;0.40;;;22.30;94.60;;;;;;5077471;28;20127;-71
2022/07/15 12:24:07;;;;;;;1.08;0.50;;;22.30;95.00;;;;;;5059758;28;20106;-71
2022/07/15 12:26:44;;;;;;;1.67;0.50;;;22.40;95.00;;;;;;5059726;28;20127;-71
2022/07/15 12:29:10;;;;;;;3.17;0.40;;;22.40;94.50;;;;;;5064930;28;20052;-71
2022/07/15 12:31:38;;;;;;;2.08;0.50;;;22.30;95.60;;;;;;5083688;28;20360;-71
2022/07/15 12:34:04;;;;;;;1.23;0.38;;;22.30;95.00;;;;;;5059943;28;20059;-71
2022/07/15 12:36:33;;;;;;;2.60;1.00;;;22.20;94.30;;;;;;5058911;28;20131;-71
2022/07/15 12:39:09;;;;;;;1.10;0.50;;;22.00;94.90;;;;;;5059570;28;20075;-69
2022/07/15 12:41:36;;;;;;;1.90;0.40;;;21.90;95.10;;;;;;5042621;28;20106;-69
2022/07/15 12:44:04;;;;;;;0.47;0.30;;;21.90;95.70;;;;;;5079128;28;20127;-70
2022/07/15 12:46:53;;;;;;;2.97;0.40;;;22.00;95.60;;;;;;5079506;28;20054;-70
2022/07/15 12:49:39;;;;;;;0.30;0.30;;;22.00;96.00;;;;;;5079423;28;20342;-69
2022/07/15 12:52:18;;;;;;;1.90;0.50;;;21.90;96.10;;;;;;5079504;28;20063;-69
2022/07/15 12:54:44;;;;;;;1.45;0.50;;;22.00;94.50;;;;;;5079226;28;20092;-69
2022/07/15 12:57:35;;;;;;;0.68;0.40;;;22.10;95.40;;;;;;5079762;28;20052;-71
2022/07/15 13:00:10;;;;;;;1.67;0.80;;;22.40;95.60;;;;;;5096435;28;20036;-71
2022/07/15 13:03:02;;;;;;;2.75;0.50;;;22.60;95.70;;;;;;5096829;28;20044;-70
2022/07/15 13:05:31;;;;;;;1.90;0.50;;;22.80;94.80;;;;;;5048340;28;20396;-69
2022/07/15 13:07:57;;;;;;;1.55;0.52;;;22.70;95.30;;;;;;5063308;28;20479;-69
2022/07/15 13:10:23;;;;;;;1.75;0.73;;;22.50;95.10;;;;;;5076641;28;20131;-68